Borkum Airport

EDWR · 下萨克森, 德国

罗盘
风向 的 风向 280° Borkum Airport 5/23
风: 6 kt, 2 beaufort

4 kt

5 kt
改变
0 1.000 2.000 3.000 4.000 5.000
BKN 2.900 ft
BKN 4.700 ft
METAR EDWE 030050Z AUTO 28006KT 9999 // BKN029/// BKN047/// 12/10 Q1023

METAR Borkum Airport - EDWR/BMK

Borkum Airport是Borkum,德国中的小机场。 该机场有3条跑道: 5/23, 12/30 和 13/31. 该领域的国际民航组织标志是EDWR 它的国际航空运输协会代码是BMK.

这份报告是针对2022年10月3日 02:50, 当地时间在Emden Airport进行的。

机场观察

风向为280°,速度为6 kt。

可见度为10 km 或者更多。

有碎云在2.900 ft的高度 和 碎云在4.700 ft的高度。 破损或更高的上限为2.900 ft。

温度和风寒是12 °C。 露点为10 °C,相对湿度为88%。 海平面上的气压为1023 hPa (QNH)。

白天

今天,太阳从07:38升起,在19:05降落。 这适用于Borkum Airport,世界夏令时可能有所不同。 当地时间与世界标准时间之间的时差为+2 小时。 夏令时目前正在进行中。

公司介绍

我们没有关于这个机场的公司信息。

体会

到Vliegles.nl去找飞行课程,跳伞和其他飞行体验。 浏览页面,了解Borkum Airport附近所有可用的活动。 你也可以使用搜索功能来寻找你所在地附近的特定飞行课程、跳伞或其他飞行体验。

跑道

Id 标题 侧风 逆风 侧风 %
5/23 049°-229° 5 kt 4 kt 78 %
12/30 122°-302° 2 kt 6 kt 37 %
13/31 132°-312° 3 kt 5 kt 53 %

逆风成分最大的方向会被突出显示,并用于横风计算。 这并不一定意味着这个方向在使用。

乌云

2.900 ft BKN 碎云
4.700 ft BKN 碎云

温度 & 天气

温度 12 °C
露点 10 °C
相对湿度 88%
Kp-index 3 (0-9)

白天

日出
07:36 (4h 11m)
中午
13:20
日落
19:03

小工具

你想在你的网站上有一个关于Borkum Airport的当前航空天气(METAR)的小部件吗?

</> 显示HTML代码

我们和第三方通过cookies跟踪您在我们网站上的上网行为。如果您继续,我们认为您同意我们的cookie政策。 了解更多